Time;durP1;ratioP1;P1;durP2;ratioP2;P2;SDS_P1;SDS_P2;PMS_P1;PMS_P2;Temp;Humidity;BMP_temperature;BMP_pressure;BME280_temperature;BME280_humidity;BME280_pressure;Samples;Min_cycle;Max_cycle;Signal;HPM_P1;HPM_P2
2023/10/13 00:01:22;;;;;;;18.90;8.50;;;;;;;13.61;100.00;99544.33;106925;1250;62183;-75
2023/10/13 00:03:51;;;;;;;14.40;8.50;;;;;;;13.58;100.00;99542.83;106950;1250;60372;-76
2023/10/13 00:06:18;;;;;;;19.50;8.20;;;;;;;13.58;100.00;99548.30;106536;1250;74209;-73
2023/10/13 00:08:45;;;;;;;17.90;9.30;;;;;;;13.58;100.00;99540.94;106148;1251;69903;-72
2023/10/13 00:11:15;;;;;;;12.90;8.10;;;;;;;13.58;100.00;99527.36;106142;1250;72454;-73
2023/10/13 00:13:44;;;;;;;17.30;8.70;;;;;;;13.58;100.00;99521.69;106854;1253;62278;-73
2023/10/13 00:16:17;;;;;;;12.00;7.70;;;;;;;13.61;100.00;99530.73;106453;1251;60518;-73
2023/10/13 00:18:44;;;;;;;17.50;8.40;;;;;;;13.63;100.00;99546.31;106330;1251;74352;-73
2023/10/13 00:21:13;;;;;;;16.40;8.10;;;;;;;13.63;100.00;99550.01;106087;1251;69694;-74
2023/10/13 00:23:52;;;;;;;11.20;7.50;;;;;;;13.63;100.00;99546.31;106166;1251;72905;-74
2023/10/13 00:26:24;;;;;;;14.20;7.70;;;;;;;13.64;100.00;99540.13;106898;1254;60942;-74
2023/10/13 00:29:38;;;;;;;14.20;7.50;;;;;;;13.68;100.00;99538.33;106131;1250;60398;-73
2023/10/13 00:31:42;;;;;;;12.80;7.10;;;;;;;13.71;100.00;99533.92;106126;1250;74112;-74
2023/10/13 00:34:24;;;;;;;10.70;6.40;;;;;;;13.74;100.00;99528.16;106992;1251;70955;-73
2023/10/13 00:39:44;;;;;;;13.30;7.00;;;;;;;13.79;100.00;99515.46;106126;1250;62077;-74
2023/10/13 00:42:19;;;;;;;10.80;6.10;;;;;;;13.81;100.00;99517.44;107401;1251;60265;-75
2023/10/13 00:44:49;;;;;;;9.70;6.50;;;;;;;13.84;100.00;99518.74;106102;1251;73797;-75
2023/10/13 00:47:37;;;;;;;9.90;6.80;;;;;;;13.86;100.00;99521.46;106093;1250;71508;-74
2023/10/13 00:50:05;;;;;;;11.20;6.70;;;;;;;13.88;100.00;99521.35;106154;1250;72623;-74
2023/10/13 00:52:32;;;;;;;17.10;7.70;;;;;;;13.89;100.00;99532.55;107336;1250;61902;-73
2023/10/13 00:54:59;;;;;;;13.80;7.40;;;;;;;13.88;100.00;99537.39;106513;1250;60480;-74
2023/10/13 00:57:26;;;;;;;8.60;6.50;;;;;;;13.84;100.00;99547.99;106535;1251;72600;-74
2023/10/13 00:59:54;;;;;;;11.40;6.90;;;;;;;13.80;100.00;99549.95;106552;1250;69631;-73
2023/10/13 01:02:40;;;;;;;12.90;6.90;;;;;;;13.78;100.00;99550.77;107321;1250;72607;-74
2023/10/13 01:05:11;;;;;;;9.60;6.70;;;;;;;13.74;100.00;99549.86;106605;1251;61863;-73
2023/10/13 01:07:38;;;;;;;16.00;7.60;;;;;;;13.72;100.00;99546.23;106212;1250;60384;-78
2023/10/13 01:10:15;;;;;;;14.40;8.60;;;;;;;13.72;100.00;99545.00;106991;1251;72427;-72
2023/10/13 01:12:45;;;;;;;13.50;7.60;;;;;;;13.72;100.00;99547.46;107793;1251;70993;-75
2023/10/13 01:15:16;;;;;;;10.50;6.70;;;;;;;13.71;100.00;99549.79;107919;1250;72917;-74
2023/10/13 01:17:44;;;;;;;9.00;6.20;;;;;;;13.71;100.00;99552.27;108019;1250;60552;-75
2023/10/13 01:20:19;;;;;;;13.90;7.70;;;;;;;13.71;100.00;99552.09;109396;1250;59002;-74
2023/10/13 01:22:55;;;;;;;14.60;6.70;;;;;;;13.72;100.00;99550.66;109459;1254;72648;-74
2023/10/13 01:25:28;;;;;;;14.80;7.90;;;;;;;13.74;100.00;99550.20;109502;1250;69939;-75
2023/10/13 01:27:57;;;;;;;13.60;7.40;;;;;;;13.78;100.00;99549.87;108662;1250;71842;-74
2023/10/13 01:30:26;;;;;;;13.50;6.50;;;;;;;13.80;100.00;99553.86;107922;1251;60528;-74
2023/10/13 01:32:53;;;;;;;11.60;7.20;;;;;;;13.80;100.00;99562.45;108765;1250;60256;-74
2023/10/13 01:35:26;;;;;;;12.30;6.70;;;;;;;13.81;100.00;99564.87;109525;1250;72295;-74
2023/10/13 01:37:53;;;;;;;10.60;6.60;;;;;;;13.82;100.00;99571.17;109640;1250;69563;-72
2023/10/13 01:40:20;;;;;;;9.10;6.30;;;;;;;13.82;100.00;99573.30;109573;1250;71097;-73
2023/10/13 01:42:47;;;;;;;10.30;6.90;;;;;;;13.80;100.00;99578.32;107466;1250;60546;-74
2023/10/13 01:45:14;;;;;;;10.20;6.10;;;;;;;13.79;100.00;99576.44;106515;1250;60404;-74
2023/10/13 01:47:41;;;;;;;12.40;6.90;;;;;;;13.79;100.00;99584.05;106824;1251;72343;-73
2023/10/13 01:50:19;;;;;;;13.00;6.20;;;;;;;13.77;100.00;99584.81;106433;1250;71543;-73
2023/10/13 01:52:45;;;;;;;10.40;6.90;;;;;;;13.75;100.00;99589.30;106119;1250;72850;-74
2023/10/13 01:55:14;;;;;;;10.70;6.70;;;;;;;13.72;100.00;99590.67;106086;1250;62461;-75
2023/10/13 01:57:47;;;;;;;11.40;6.10;;;;;;;13.69;100.00;99597.00;106121;1250;60515;-74
2023/10/13 02:00:18;;;;;;;11.20;7.10;;;;;;;13.65;100.00;99598.21;106869;1251;72305;-74
2023/10/13 02:02:47;;;;;;;12.10;6.50;;;;;;;13.63;100.00;99599.02;106523;1250;71270;-74
2023/10/13 02:05:16;;;;;;;10.50;6.60;;;;;;;13.62;100.00;99605.60;107004;1250;73617;-75
2023/10/13 02:07:45;;;;;;;15.60;6.80;;;;;;;13.61;100.00;99610.04;106558;1250;61861;-73
2023/10/13 02:10:12;;;;;;;8.60;6.60;;;;;;;13.59;100.00;99617.01;106525;1253;60408;-75
2023/10/13 02:12:42;;;;;;;11.30;6.70;;;;;;;13.57;100.00;99617.45;107337;1250;74108;-74
2023/10/13 02:15:21;;;;;;;11.10;6.40;;;;;;;13.57;100.00;99620.27;106098;1251;70977;-73
2023/10/13 02:17:51;;;;;;;10.00;6.20;;;;;;;13.56;100.00;99626.79;106256;1250;73235;-74
2023/10/13 02:20:18;;;;;;;14.10;6.60;;;;;;;13.56;100.00;99628.76;106099;1254;60814;-74
2023/10/13 02:22:51;;;;;;;17.70;6.60;;;;;;;13.56;100.00;99627.16;106966;1254;60594;-73
2023/10/13 02:25:35;;;;;;;15.70;6.70;;;;;;;13.56;100.00;99630.53;106547;1251;73678;-74
2023/10/13 02:28:02;;;;;;;13.60;6.40;;;;;;;13.56;100.00;99638.10;106276;1250;71088;-74
2023/10/13 02:30:30;;;;;;;8.00;6.40;;;;;;;13.56;100.00;99644.10;106176;1254;72419;-75
2023/10/13 02:33:03;;;;;;;14.40;6.40;;;;;;;13.56;100.00;99646.91;106350;1250;62448;-73
2023/10/13 02:35:41;;;;;;;9.30;6.60;;;;;;;13.56;100.00;99644.45;106466;1251;60651;-73
2023/10/13 02:38:11;;;;;;;13.50;7.20;;;;;;;13.55;100.00;99651.36;105846;1250;1002324;-75
2023/10/13 02:40:38;;;;;;;13.40;6.50;;;;;;;13.54;100.00;99651.41;106173;1251;70065;-74
2023/10/13 02:43:05;;;;;;;10.00;6.90;;;;;;;13.54;100.00;99650.18;106582;1250;72708;-73
2023/10/13 02:45:35;;;;;;;12.60;7.60;;;;;;;13.55;100.00;99650.14;107360;1250;61918;-74
2023/10/13 02:48:13;;;;;;;13.90;7.60;;;;;;;13.55;100.00;99654.02;106525;1251;60480;-75
2023/10/13 02:50:44;;;;;;;11.50;7.60;;;;;;;13.55;100.00;99650.70;106909;1250;1002318;-74
2023/10/13 02:53:13;;;;;;;9.70;6.60;;;;;;;13.55;100.00;99652.63;106100;1254;71142;-74
2023/10/13 02:55:53;;;;;;;8.90;6.60;;;;;;;13.55;100.00;99655.09;106015;1253;72890;-74
2023/10/13 02:58:20;;;;;;;12.00;6.70;;;;;;;13.55;100.00;99659.64;107014;1250;61839;-75
2023/10/13 03:00:47;;;;;;;14.20;6.90;;;;;;;13.56;100.00;99661.55;106529;1250;60559;-74
2023/10/13 03:03:18;;;;;;;10.30;6.70;;;;;;;13.56;100.00;99658.73;106200;1253;73749;-74
2023/10/13 03:05:45;;;;;;;12.90;6.70;;;;;;;13.56;100.00;99662.24;106151;1250;70012;-75
2023/10/13 03:08:17;;;;;;;11.40;7.10;;;;;;;13.55;100.00;99661.23;106150;1254;71217;-74
2023/10/13 03:10:49;;;;;;;13.90;6.60;;;;;;;13.56;100.00;99659.80;106191;1250;61629;-73
2023/10/13 03:13:15;;;;;;;12.70;6.40;;;;;;;13.57;100.00;99662.04;107056;1250;60446;-75
2023/10/13 03:15:47;;;;;;;12.90;7.10;;;;;;;13.58;100.00;99666.06;106166;1250;73766;-74
2023/10/13 03:18:18;;;;;;;12.80;6.90;;;;;;;13.57;100.00;99668.18;106123;1250;69735;-74
2023/10/13 03:20:50;;;;;;;14.10;8.10;;;;;;;13.58;100.00;99666.59;106154;1250;72440;-73
2023/10/13 03:23:17;;;;;;;9.70;7.30;;;;;;;13.57;100.00;99666.80;107789;1250;61957;-73
2023/10/13 03:25:44;;;;;;;12.50;7.10;;;;;;;13.58;100.00;99670.45;106169;1250;60550;-73
2023/10/13 03:28:13;;;;;;;10.70;7.60;;;;;;;13.57;100.00;99675.61;106189;1254;73885;-74
2023/10/13 03:30:42;;;;;;;12.00;6.70;;;;;;;13.57;100.00;99673.51;106240;1250;71011;-74
2023/10/13 03:33:14;;;;;;;9.70;6.70;;;;;;;13.57;100.00;99672.45;106494;1250;72487;-74
2023/10/13 03:35:45;;;;;;;11.60;7.80;;;;;;;13.57;100.00;99673.67;106539;1254;60596;-73
2023/10/13 03:38:18;;;;;;;8.30;6.50;;;;;;;13.58;100.00;99674.68;106206;1254;59276;-74
2023/10/13 03:40:56;;;;;;;12.30;7.20;;;;;;;13.58;100.00;99674.35;107113;1250;72510;-74
2023/10/13 03:43:29;;;;;;;11.20;7.70;;;;;;;13.57;100.00;99676.86;106510;1254;71312;-74
2023/10/13 03:46:07;;;;;;;12.80;7.30;;;;;;;13.54;100.00;99677.30;106199;1250;71610;-74
2023/10/13 03:48:51;;;;;;;11.50;7.20;;;;;;;13.54;100.00;99683.30;107030;1250;61855;-75
2023/10/13 03:51:19;;;;;;;14.80;6.80;;;;;;;13.54;100.00;99684.92;107049;1250;60584;-74
2023/10/13 03:53:55;;;;;;;11.00;6.60;;;;;;;13.56;100.00;99678.48;106697;1250;72759;-74
2023/10/13 03:56:27;;;;;;;12.40;6.30;;;;;;;13.60;100.00;99686.95;106573;1250;71109;-74
2023/10/13 03:59:06;;;;;;;12.80;6.70;;;;;;;13.62;100.00;99687.91;106141;1250;72494;-74
2023/10/13 04:04:14;;;;;;;13.50;7.40;;;;;;;13.61;100.00;99688.10;106136;1251;59508;-74
2023/10/13 04:17:27;;;;;;;14.70;8.40;;;;;;;13.63;100.00;99686.96;106596;1252;60440;-74
2023/10/13 04:20:26;;;;;;;10.80;6.50;;;;;;;13.64;100.00;99690.96;106170;1250;71803;-74
2023/10/13 04:33:35;;;;;;;19.00;7.50;;;;;;;13.69;100.00;99708.91;107373;1250;73701;-74
2023/10/13 04:36:13;;;;;;;11.00;7.70;;;;;;;13.72;100.00;99720.06;107520;1250;71200;-74
2023/10/13 04:38:57;;;;;;;10.30;6.50;;;;;;;13.74;100.00;99723.85;106549;1253;72309;-75
2023/10/13 04:41:24;;;;;;;8.50;5.90;;;;;;;13.74;100.00;99723.83;106514;1254;61245;-73
2023/10/13 04:43:55;;;;;;;10.10;6.20;;;;;;;13.76;100.00;99731.52;106173;1254;61260;-74
2023/10/13 04:46:35;;;;;;;9.10;6.50;;;;;;;13.77;100.00;99736.08;106158;1250;74758;-74
2023/10/13 04:49:09;;;;;;;11.70;7.40;;;;;;;13.76;100.00;99737.70;107086;1255;69229;-74
2023/10/13 04:51:50;;;;;;;10.90;7.00;;;;;;;13.78;100.00;99743.11;106793;1250;71134;-74
2023/10/13 04:54:26;;;;;;;11.30;6.60;;;;;;;13.79;100.00;99742.17;106146;1254;61325;-74
2023/10/13 04:56:59;;;;;;;10.20;6.40;;;;;;;13.80;100.00;99741.77;107380;1250;60140;-76
2023/10/13 04:59:37;;;;;;;9.20;6.10;;;;;;;13.82;100.00;99745.72;106167;1250;75147;-75
2023/10/13 05:05:21;;;;;;;11.40;6.90;;;;;;;13.88;100.00;99742.61;106384;1250;71265;-74
2023/10/13 06:30:08;;;;;;;7.10;5.90;;;;;;;14.71;100.00;99826.62;104465;1250;1002923;-73
2023/10/13 06:32:39;;;;;;;7.90;6.10;;;;;;;14.70;100.00;99823.63;106238;1250;60365;-74
2023/10/13 06:35:07;;;;;;;9.40;6.20;;;;;;;14.72;100.00;99823.00;106168;1250;74528;-74
2023/10/13 06:37:34;;;;;;;12.10;5.60;;;;;;;14.73;100.00;99819.45;106607;1250;69643;-74
2023/10/13 06:40:06;;;;;;;9.50;5.50;;;;;;;14.73;100.00;99819.94;106546;1251;72489;-74
2023/10/13 06:42:42;;;;;;;10.10;6.70;;;;;;;14.76;100.00;99824.95;106965;1250;61271;-75
2023/10/13 06:45:09;;;;;;;10.20;6.70;;;;;;;14.79;100.00;99830.79;106807;1250;61145;-74
2023/10/13 06:47:45;;;;;;;13.30;7.30;;;;;;;14.85;100.00;99833.17;106162;1255;73067;-74
2023/10/13 06:50:24;;;;;;;11.80;6.80;;;;;;;14.90;100.00;99831.89;106138;1254;70243;-74
2023/10/13 06:52:54;;;;;;;11.30;6.10;;;;;;;14.87;100.00;99828.14;107418;1250;72421;-74
2023/10/13 06:55:27;;;;;;;11.30;5.40;;;;;;;14.85;100.00;99830.86;106142;1250;61234;-74
2023/10/13 06:57:59;;;;;;;9.60;4.80;;;;;;;14.84;100.00;99836.05;106203;1250;61313;-74
2023/10/13 07:00:34;;;;;;;12.20;5.40;;;;;;;14.81;100.00;99841.12;106391;1254;74886;-73
2023/10/13 07:03:08;;;;;;;9.30;5.40;;;;;;;14.83;100.00;99849.52;106782;1250;70876;-74
2023/10/13 07:05:37;;;;;;;14.60;6.00;;;;;;;14.83;100.00;99852.68;108420;1254;72449;-74
2023/10/13 07:08:06;;;;;;;12.60;6.10;;;;;;;14.80;100.00;99845.23;107480;1250;59976;-73
2023/10/13 07:10:44;;;;;;;13.60;5.80;;;;;;;14.75;100.00;99846.16;109019;1250;60324;-73
2023/10/13 07:13:13;;;;;;;11.00;5.10;;;;;;;14.72;100.00;99847.55;109506;1250;72193;-73
2023/10/13 07:15:49;;;;;;;11.20;5.50;;;;;;;14.70;100.00;99847.30;109621;1251;69571;-73
2023/10/13 07:18:22;;;;;;;16.60;5.50;;;;;;;14.72;100.00;99848.11;109601;1250;71388;-74
2023/10/13 07:20:49;;;;;;;12.80;5.50;;;;;;;14.78;100.00;99848.67;109447;1250;60463;-73
2023/10/13 07:23:19;;;;;;;7.20;5.20;;;;;;;14.87;100.00;99853.22;107046;1254;61346;-73
2023/10/13 07:26:02;;;;;;;7.10;4.90;;;;;;;14.96;100.00;99858.30;109509;1250;74497;-74
2023/10/13 07:28:36;;;;;;;15.50;6.20;;;;;;;15.03;100.00;99857.05;109635;1250;69871;-74
2023/10/13 07:33:31;;;;;;;20.50;5.60;;;;;;;15.05;100.00;99857.30;108470;1250;1002424;-74
2023/10/13 07:36:15;;;;;;;16.40;5.30;;;;;;;15.04;100.00;99856.84;107013;1251;61286;-74
2023/10/13 07:38:42;;;;;;;8.30;4.90;;;;;;;15.04;100.00;99852.93;106130;1251;73059;-73
2023/10/13 07:41:09;;;;;;;7.20;4.70;;;;;;;15.03;100.00;99846.11;106181;1250;71480;-72
2023/10/13 07:43:39;;;;;;;8.20;4.80;;;;;;;15.05;100.00;99844.77;106202;1254;70922;-74
2023/10/13 07:46:09;;;;;;;11.00;5.40;;;;;;;15.09;100.00;99854.13;106416;1250;61710;-75
2023/10/13 07:48:37;;;;;;;8.60;4.50;;;;;;;15.14;100.00;99861.11;106406;1250;61334;-74
2023/10/13 07:51:15;;;;;;;6.30;4.70;;;;;;;15.20;100.00;99862.44;107426;1250;74446;-74
2023/10/13 07:53:43;;;;;;;8.80;5.10;;;;;;;15.21;100.00;99860.44;106449;1250;70866;-74
2023/10/13 07:56:12;;;;;;;17.10;6.00;;;;;;;15.19;100.00;99866.17;106992;1250;71102;-74
2023/10/13 08:01:42;;;;;;;8.10;5.70;;;;;;;15.20;100.00;99870.75;105651;1256;61510;-74
2023/10/13 08:04:14;;;;;;;11.00;5.10;;;;;;;15.24;100.00;99873.54;106114;1250;74795;-74
2023/10/13 08:06:43;;;;;;;9.90;5.30;;;;;;;15.24;100.00;99877.77;107093;1250;69729;-74
2023/10/13 08:09:29;;;;;;;15.90;5.30;;;;;;;15.25;100.00;99883.02;106460;1250;72167;-74
2023/10/13 08:11:56;;;;;;;8.40;4.00;;;;;;;15.27;100.00;99885.44;106162;1250;61361;-74
2023/10/13 08:14:23;;;;;;;10.20;4.80;;;;;;;15.31;100.00;99885.98;106194;1255;61305;-73
2023/10/13 08:17:12;;;;;;;9.30;5.60;;;;;;;15.34;100.00;99885.43;106597;1250;74569;-74
2023/10/13 08:19:39;;;;;;;12.40;6.20;;;;;;;15.29;100.00;99875.80;106290;1254;69604;-74
2023/10/13 08:27:34;;;;;;;10.90;5.20;;;;;;;15.30;100.00;99882.98;106649;1250;61382;-75
2023/10/13 08:31:14;;;;;;;7.60;4.70;;;;;;;15.35;100.00;99881.88;107496;1250;72851;-74
2023/10/13 08:32:59;;;;;;;8.20;4.50;;;;;;;15.39;100.00;99881.13;106139;1254;70958;-75
2023/10/13 08:43:11;;;;;;;9.40;4.30;;;;;;;15.88;100.00;99871.85;106182;1256;75126;-73
2023/10/13 08:48:16;;;;;;;6.80;3.50;;;;;;;15.97;100.00;99863.61;107113;1256;71070;-73
2023/10/13 08:56:14;;;;;;;10.50;3.40;;;;;;;16.11;100.00;99859.17;107493;1250;73147;-75
2023/10/13 09:12:35;;;;;;;9.10;3.70;;;;;;;16.28;100.00;99857.73;107078;1250;71175;-73
2023/10/13 09:23:45;;;;;;;18.40;4.70;;;;;;;16.70;100.00;99866.48;106211;1250;75315;-74
2023/10/13 09:26:12;;;;;;;17.90;4.80;;;;;;;16.89;100.00;99861.41;106205;1250;71761;-74
2023/10/13 09:28:39;;;;;;;9.80;4.10;;;;;;;17.08;100.00;99856.11;107001;1250;72565;-74
2023/10/13 09:31:09;;;;;;;8.20;3.10;;;;;;;17.24;100.00;99851.30;106576;1250;61260;-74
2023/10/13 09:33:36;;;;;;;6.00;2.90;;;;;;;17.33;100.00;99843.53;106224;1253;61155;-75
2023/10/13 09:36:12;;;;;;;7.90;3.40;;;;;;;17.37;100.00;99848.96;107178;1250;73651;-75
2023/10/13 09:38:40;;;;;;;8.90;3.80;;;;;;;17.44;100.00;99852.09;106518;1254;71647;-75
2023/10/13 09:41:26;;;;;;;5.40;3.40;;;;;;;17.50;100.00;99845.55;106774;1259;71859;-74
2023/10/13 09:43:52;;;;;;;;;;;;;;;17.58;100.00;99840.88;106264;1256;61211;-74
2023/10/13 09:46:23;;;;;;;7.10;3.00;;;;;;;17.66;100.00;99840.54;106746;1250;61245;-73
2023/10/13 09:49:04;;;;;;;7.50;3.00;;;;;;;17.77;100.00;99839.73;107056;1254;74452;-75
2023/10/13 09:51:33;;;;;;;7.30;3.30;;;;;;;17.90;100.00;99828.70;105709;1250;1003358;-75
2023/10/13 09:54:13;;;;;;;7.30;3.10;;;;;;;18.05;100.00;99823.03;106224;1254;72934;-74
2023/10/13 09:57:09;;;;;;;6.40;3.10;;;;;;;18.18;100.00;99830.20;107259;1250;61273;-74
2023/10/13 09:59:52;;;;;;;6.80;2.50;;;;;;;18.27;100.00;99832.35;106181;1250;61302;-73
2023/10/13 10:02:25;;;;;;;10.70;3.40;;;;;;;18.22;100.00;99826.63;106279;1256;74345;-74
2023/10/13 10:04:53;;;;;;;21.40;3.50;;;;;;;18.03;100.00;99821.87;106894;1255;71408;-74
2023/10/13 10:07:32;;;;;;;4.70;2.40;;;;;;;18.06;100.00;99820.78;106206;1254;72634;-74
2023/10/13 10:10:00;;;;;;;5.80;2.60;;;;;;;18.24;100.00;99819.01;106175;1250;61365;-74
2023/10/13 10:12:47;;;;;;;19.20;3.20;;;;;;;18.43;100.00;99816.75;107890;1254;60368;-75
2023/10/13 10:15:33;;;;;;;15.20;3.20;;;;;;;18.63;100.00;99815.73;106277;1250;73018;-74
2023/10/13 10:18:00;;;;;;;8.50;2.60;;;;;;;18.69;100.00;99810.36;106487;1251;71626;-73
2023/10/13 10:20:44;;;;;;;8.50;3.10;;;;;;;18.71;100.00;99811.64;107505;1250;72353;-74
2023/10/13 10:23:24;;;;;;;6.70;3.00;;;;;;;18.74;100.00;99812.52;106221;1250;61347;-74
2023/10/13 10:25:51;;;;;;;11.30;3.20;;;;;;;18.89;100.00;99821.52;106228;1255;61235;-74
2023/10/13 10:28:19;;;;;;;29.10;4.10;;;;;;;19.04;100.00;99815.27;107317;1251;75564;-74
2023/10/13 10:30:46;;;;;;;9.20;2.40;;;;;;;19.16;100.00;99804.52;106153;1254;70485;-74
2023/10/13 10:33:15;;;;;;;6.70;2.20;;;;;;;19.23;100.00;99799.04;106293;1250;71190;-76
2023/10/13 10:35:42;;;;;;;4.90;2.20;;;;;;;19.38;100.00;99800.95;106977;1250;61139;-75
2023/10/13 10:41:00;;;;;;;14.10;2.80;;;;;;;19.54;100.00;99804.11;107362;1250;74135;-74
2023/10/13 10:43:41;;;;;;;5.10;2.00;;;;;;;19.47;100.00;99796.45;106482;1251;71124;-75
2023/10/13 10:46:10;;;;;;;8.20;2.70;;;;;;;19.30;100.00;99805.05;106259;1250;72922;-74
2023/10/13 10:48:43;;;;;;;7.20;2.40;;;;;;;19.02;100.00;99809.00;106917;1250;61259;-73
2023/10/13 10:51:14;;;;;;;3.90;2.30;;;;;;;18.74;100.00;99813.44;107088;1250;61231;-75
2023/10/13 10:53:44;;;;;;;4.50;2.20;;;;;;;18.44;100.00;99803.07;107234;1254;74691;-76
2023/10/13 10:56:25;;;;;;;5.20;2.30;;;;;;;18.23;100.00;99803.47;106226;1250;71200;-74
2023/10/13 10:58:56;;;;;;;21.80;4.00;;;;;;;18.12;100.00;99798.04;106257;1251;72749;-75
2023/10/13 11:01:25;;;;;;;8.20;2.40;;;;;;;18.26;100.00;99799.02;106599;1250;61241;-73
2023/10/13 11:03:59;;;;;;;6.50;2.10;;;;;;;18.44;100.00;99799.29;106609;1254;61330;-73
2023/10/13 11:06:26;;;;;;;3.10;2.40;;;;;;;18.64;100.00;99807.43;106974;1250;74431;-74
2023/10/13 11:09:18;;;;;;;6.50;2.20;;;;;;;18.82;100.00;99808.65;106647;1250;69148;-74
2023/10/13 11:11:46;;;;;;;4.80;2.20;;;;;;;18.94;100.00;99799.87;106263;1255;73143;-74
2023/10/13 11:14:26;;;;;;;7.20;2.30;;;;;;;18.97;100.00;99796.34;106175;1250;61244;-75
2023/10/13 11:17:16;;;;;;;5.30;2.30;;;;;;;19.04;100.00;99790.18;107500;1250;61155;-74
2023/10/13 11:19:42;;;;;;;4.90;1.80;;;;;;;19.20;100.00;99784.70;106223;1251;73564;-74
2023/10/13 11:22:33;;;;;;;5.80;2.30;;;;;;;19.24;100.00;99785.86;106351;1250;71103;-74
2023/10/13 11:25:14;;;;;;;6.50;2.10;;;;;;;19.21;100.00;99789.41;107498;1250;71632;-74
2023/10/13 11:27:55;;;;;;;7.40;2.50;;;;;;;19.30;100.00;99791.69;106202;1250;61273;-74
2023/10/13 11:30:29;;;;;;;5.10;1.80;;;;;;;19.31;100.00;99786.46;106192;1254;61353;-74
2023/10/13 11:32:58;;;;;;;9.60;2.70;;;;;;;19.31;100.00;99790.34;106187;1256;74702;-75
2023/10/13 11:35:28;;;;;;;5.40;1.80;;;;;;;19.41;100.00;99787.38;106233;1256;70864;-74
2023/10/13 11:38:04;;;;;;;19.40;2.80;;;;;;;19.63;100.00;99781.63;107026;1250;72503;-74
2023/10/13 11:40:43;;;;;;;4.50;1.90;;;;;;;19.91;100.00;99785.09;106585;1257;61231;-75
2023/10/13 11:43:15;;;;;;;5.70;2.20;;;;;;;20.03;100.00;99782.11;106403;1250;61352;-74
2023/10/13 11:45:55;;;;;;;2.60;1.60;;;;;;;20.15;100.00;99787.56;106235;1250;75133;-74
2023/10/13 11:48:36;;;;;;;3.20;1.90;;;;;;;20.17;100.00;99784.56;107501;1251;71053;-76
2023/10/13 11:51:16;;;;;;;8.40;1.80;;;;;;;20.07;100.00;99781.70;106233;1250;72516;-75
2023/10/13 11:53:53;;;;;;;3.20;1.90;;;;;;;19.77;100.00;99772.88;106657;1255;61362;-73
2023/10/13 11:56:23;;;;;;;5.00;2.40;;;;;;;19.51;100.00;99771.92;106220;1250;61293;-75
2023/10/13 11:58:50;;;;;;;5.60;2.00;;;;;;;19.41;100.00;99777.98;106181;1255;74622;-73
2023/10/13 12:01:20;;;;;;;5.20;2.20;;;;;;;19.34;100.00;99782.01;106233;1250;70839;-74
2023/10/13 12:11:44;;;;;;;3.40;2.10;;;;;;;19.24;100.00;99782.81;107040;1251;72336;-72
2023/10/13 12:14:17;;;;;;;4.40;2.00;;;;;;;19.53;100.00;99774.69;106794;1251;71166;-74
2023/10/13 12:16:50;;;;;;;3.80;2.20;;;;;;;19.84;100.00;99777.73;106037;1256;71192;-74
2023/10/13 12:19:29;;;;;;;7.20;2.10;;;;;;;20.02;100.00;99777.21;106702;1250;61250;-74
2023/10/13 12:21:57;;;;;;;3.90;2.10;;;;;;;20.06;100.00;99774.61;106228;1256;61270;-75
2023/10/13 12:24:39;;;;;;;4.00;3.00;;;;;;;20.23;100.00;99770.23;106471;1256;73554;-74
2023/10/13 12:27:19;;;;;;;3.80;2.20;;;;;;;20.49;100.00;99770.55;106625;1255;70994;-74
2023/10/13 12:29:47;;;;;;;6.10;2.30;;;;;;;20.53;100.00;99775.20;106434;1250;71730;-75
2023/10/13 12:32:14;;;;;;;6.10;2.50;;;;;;;20.63;100.00;99772.39;107641;1250;61188;-74
2023/10/13 12:37:51;;;;;;;4.80;3.80;;;;;;;20.28;100.00;99761.89;106240;1250;73466;-77
2023/10/13 12:53:55;;;;;;;3.80;2.30;;;;;;;20.11;100.00;99778.02;106562;1251;70996;-74
2023/10/13 12:56:25;;;;;;;2.30;1.90;;;;;;;20.00;100.00;99779.11;106488;1256;71578;-72
2023/10/13 12:58:52;;;;;;;2.70;1.80;;;;;;;19.79;100.00;99778.77;107573;1250;61340;-75
2023/10/13 13:01:26;;;;;;;6.00;2.30;;;;;;;19.63;100.00;99783.20;106198;1256;61234;-75
2023/10/13 13:03:56;;;;;;;2.90;1.90;;;;;;;19.68;100.00;99789.48;106272;1255;74591;-74
2023/10/13 13:06:26;;;;;;;5.40;1.80;;;;;;;19.85;100.00;99790.16;106071;1251;71991;-74
2023/10/13 13:08:57;;;;;;;3.80;1.80;;;;;;;20.30;100.00;99788.83;107125;1256;71759;-76
2023/10/13 13:11:24;;;;;;;3.20;1.90;;;;;;;20.99;100.00;99785.30;106663;1255;61254;-76
2023/10/13 13:13:54;;;;;;;4.70;1.50;;;;;;;21.90;98.01;99785.44;106584;1254;61234;-74
2023/10/13 13:16:24;;;;;;;5.00;1.60;;;;;;;23.25;83.32;99780.88;106642;1250;74896;-74
2023/10/13 13:18:50;;;;;;;4.80;1.70;;;;;;;24.76;61.75;99776.54;107129;1250;70785;-74
2023/10/13 13:21:22;;;;;;;5.10;1.50;;;;;;;25.52;49.89;99768.05;109061;1251;71626;-74
2023/10/13 13:23:55;;;;;;;4.60;1.50;;;;;;;25.99;51.37;99772.98;107362;1250;61186;-75
2023/10/13 13:26:22;;;;;;;11.40;2.00;;;;;;;27.05;47.45;99774.30;106273;1256;61353;-74
2023/10/13 13:28:52;;;;;;;6.10;1.60;;;;;;;27.94;42.96;99759.41;108115;1253;74161;-74
2023/10/13 13:31:25;;;;;;;4.10;1.70;;;;;;;28.97;41.25;99759.15;107824;1250;71939;-74
2023/10/13 13:33:52;;;;;;;4.60;1.50;;;;;;;30.38;38.39;99759.30;106682;1256;73177;-75
2023/10/13 13:36:19;;;;;;;1.70;1.30;;;;;;;31.47;35.81;99757.56;107678;1250;62065;-75
2023/10/13 13:38:46;;;;;;;7.90;2.40;;;;;;;32.30;34.49;99757.95;106304;1252;61272;-74
2023/10/13 13:41:16;;;;;;;3.60;1.60;;;;;;;32.90;32.36;99757.44;106637;1250;68136;-75
2023/10/13 13:43:54;;;;;;;1.20;1.10;;;;;;;33.03;30.17;99759.21;106647;1255;61452;-76
2023/10/13 13:46:27;;;;;;;2.60;1.40;;;;;;;32.34;28.96;99756.20;106699;1251;63770;-74
2023/10/13 13:49:07;;;;;;;1.90;1.20;;;;;;;31.72;29.46;99754.11;108191;1251;59461;-74
2023/10/13 13:51:37;;;;;;;10.60;4.30;;;;;;;31.70;30.20;99753.46;107731;1251;61393;-76
2023/10/13 13:54:06;;;;;;;11.80;6.90;;;;;;;31.96;29.52;99751.84;106272;1254;73636;-76
2023/10/13 13:56:38;;;;;;;7.50;5.20;;;;;;;31.82;29.13;99755.06;107482;1254;62522;-76
2023/10/13 13:59:08;;;;;;;8.70;6.50;;;;;;;31.24;29.34;99763.77;107490;1254;64537;-74
2023/10/13 14:01:37;;;;;;;4.00;2.20;;;;;;;30.68;29.93;99766.98;106684;1260;61289;-73
2023/10/13 14:04:06;;;;;;;4.90;1.70;;;;;;;30.25;30.84;99767.31;106681;1255;59579;-74
2023/10/13 14:06:34;;;;;;;11.20;1.90;;;;;;;30.41;31.50;99771.69;106561;1251;65742;-74
2023/10/13 14:09:44;;;;;;;1.90;1.50;;;;;;;30.75;30.90;99775.13;107196;1254;62411;-74
2023/10/13 14:17:00;;;;;;;19.70;2.80;;;;;;;30.22;31.65;99778.66;107004;1251;61334;-75
2023/10/13 14:19:29;;;;;;;3.80;1.70;;;;;;;29.36;32.32;99782.05;107536;1253;66367;-73
2023/10/13 14:21:56;;;;;;;2.90;1.60;;;;;;;28.40;33.65;99787.73;106638;1251;61476;-74
2023/10/13 14:24:28;;;;;;;3.40;1.80;;;;;;;27.58;35.19;99795.45;106779;1251;63912;-74
2023/10/13 14:27:11;;;;;;;4.00;1.80;;;;;;;26.87;36.77;99802.17;106268;1257;61324;-74
2023/10/13 14:29:44;;;;;;;8.90;2.70;;;;;;;26.05;38.38;99801.02;106972;1252;61333;-74
2023/10/13 14:32:13;;;;;;;2.50;1.60;;;;;;;25.17;41.05;99807.75;106516;1256;74350;-73
2023/10/13 14:34:54;;;;;;;3.10;2.10;;;;;;;24.47;43.82;99810.53;106504;1254;71046;-73
2023/10/13 14:37:26;;;;;;;4.70;1.60;;;;;;;23.86;47.78;99809.48;106193;1256;72487;-77
2023/10/13 14:39:59;;;;;;;6.90;2.10;;;;;;;23.48;51.94;99810.50;106236;1254;61347;-74
2023/10/13 14:42:27;;;;;;;3.50;2.00;;;;;;;23.22;55.36;99813.21;106988;1254;61266;-76
2023/10/13 14:44:57;;;;;;;4.70;2.00;;;;;;;22.99;58.05;99815.95;106193;1256;74723;-75
2023/10/13 14:47:27;;;;;;;5.70;2.50;;;;;;;22.87;60.48;99816.78;106195;1254;70981;-74
2023/10/13 14:49:55;;;;;;;8.10;2.80;;;;;;;22.82;61.57;99820.19;106451;1256;72685;-75
2023/10/13 14:52:22;;;;;;;9.70;2.50;;;;;;;22.89;62.97;99820.92;106528;1257;61282;-74